sensor_id;sensor_type;location;lat;lon;timestamp;temperature;humidity
17795;DHT22;9021;50.882;4.326;2022-10-16T00:01:35;16.10;99.90
17795;DHT22;9021;50.882;4.326;2022-10-16T00:04:01;16.00;99.90
17795;DHT22;9021;50.882;4.326;2022-10-16T00:06:27;15.90;99.90
17795;DHT22;9021;50.882;4.326;2022-10-16T00:08:53;15.80;99.90
17795;DHT22;9021;50.882;4.326;2022-10-16T00:11:29;15.90;99.90
17795;DHT22;9021;50.882;4.326;2022-10-16T00:14:00;16.00;99.90
17795;DHT22;9021;50.882;4.326;2022-10-16T00:16:27;16.00;99.90
17795;DHT22;9021;50.882;4.326;2022-10-16T00:18:53;15.90;99.90
17795;DHT22;9021;50.882;4.326;2022-10-16T00:21:24;15.90;99.90
17795;DHT22;9021;50.882;4.326;2022-10-16T00:23:59;16.00;99.90
17795;DHT22;9021;50.882;4.326;2022-10-16T00:26:27;15.90;99.90
17795;DHT22;9021;50.882;4.326;2022-10-16T00:28:53;15.90;99.90
17795;DHT22;9021;50.882;4.326;2022-10-16T00:31:20;15.80;99.90
17795;DHT22;9021;50.882;4.326;2022-10-16T00:33:46;15.80;99.90
17795;DHT22;9021;50.882;4.326;2022-10-16T00:36:14;15.70;99.90
17795;DHT22;9021;50.882;4.326;2022-10-16T00:38:40;15.70;99.90
17795;DHT22;9021;50.882;4.326;2022-10-16T00:41:07;15.60;99.90
17795;DHT22;9021;50.882;4.326;2022-10-16T00:43:47;15.60;99.90
17795;DHT22;9021;50.882;4.326;2022-10-16T00:46:21;15.60;99.90
17795;DHT22;9021;50.882;4.326;2022-10-16T00:51:42;15.60;99.90
17795;DHT22;9021;50.882;4.326;2022-10-16T00:54:14;15.70;99.90
17795;DHT22;9021;50.882;4.326;2022-10-16T00:56:43;15.70;99.90
17795;DHT22;9021;50.882;4.326;2022-10-16T00:59:16;15.70;99.90
17795;DHT22;9021;50.882;4.326;2022-10-16T01:01:43;15.70;99.90
17795;DHT22;9021;50.882;4.326;2022-10-16T01:04:09;15.60;99.90
17795;DHT22;9021;50.882;4.326;2022-10-16T01:09:17;15.60;99.90
17795;DHT22;9021;50.882;4.326;2022-10-16T01:14:45;15.50;99.90
17795;DHT22;9021;50.882;4.326;2022-10-16T01:20:10;15.40;99.90
17795;DHT22;9021;50.882;4.326;2022-10-16T01:23:01;15.50;99.90
17795;DHT22;9021;50.882;4.326;2022-10-16T01:28:21;15.40;99.90
17795;DHT22;9021;50.882;4.326;2022-10-16T01:30:51;15.50;99.90
17795;DHT22;9021;50.882;4.326;2022-10-16T01:33:22;15.30;99.90
17795;DHT22;9021;50.882;4.326;2022-10-16T01:35:55;15.40;99.90
17795;DHT22;9021;50.882;4.326;2022-10-16T01:38:26;15.30;99.90
17795;DHT22;9021;50.882;4.326;2022-10-16T01:41:01;15.30;99.90
17795;DHT22;9021;50.882;4.326;2022-10-16T01:43:35;15.30;99.90
17795;DHT22;9021;50.882;4.326;2022-10-16T01:46:03;15.30;99.90
17795;DHT22;9021;50.882;4.326;2022-10-16T01:48:29;15.30;99.90
17795;DHT22;9021;50.882;4.326;2022-10-16T01:51:09;15.30;99.90
17795;DHT22;9021;50.882;4.326;2022-10-16T01:53:36;15.50;99.90
17795;DHT22;9021;50.882;4.326;2022-10-16T01:56:04;15.40;99.90
17795;DHT22;9021;50.882;4.326;2022-10-16T01:58:34;15.30;99.90
17795;DHT22;9021;50.882;4.326;2022-10-16T02:01:02;15.30;99.90
17795;DHT22;9021;50.882;4.326;2022-10-16T02:03:28;15.30;99.90
17795;DHT22;9021;50.882;4.326;2022-10-16T02:05:55;15.30;99.90
17795;DHT22;9021;50.882;4.326;2022-10-16T02:08:24;15.50;99.90
17795;DHT22;9021;50.882;4.326;2022-10-16T02:10:55;15.50;99.90
17795;DHT22;9021;50.882;4.326;2022-10-16T02:13:35;15.50;99.90
17795;DHT22;9021;50.882;4.326;2022-10-16T02:16:03;15.40;99.90
17795;DHT22;9021;50.882;4.326;2022-10-16T02:18:29;15.50;99.90
17795;DHT22;9021;50.882;4.326;2022-10-16T02:21:02;15.50;99.90
17795;DHT22;9021;50.882;4.326;2022-10-16T02:23:37;15.40;99.90
17795;DHT22;9021;50.882;4.326;2022-10-16T02:26:09;15.40;99.90
17795;DHT22;9021;50.882;4.326;2022-10-16T02:28:46;15.40;99.90
17795;DHT22;9021;50.882;4.326;2022-10-16T02:31:16;15.40;99.90
17795;DHT22;9021;50.882;4.326;2022-10-16T02:33:45;15.40;99.90
17795;DHT22;9021;50.882;4.326;2022-10-16T02:36:11;15.40;99.90
17795;DHT22;9021;50.882;4.326;2022-10-16T02:38:39;15.30;99.90
17795;DHT22;9021;50.882;4.326;2022-10-16T02:41:06;15.30;99.90
17795;DHT22;9021;50.882;4.326;2022-10-16T02:43:32;15.30;99.90
17795;DHT22;9021;50.882;4.326;2022-10-16T02:45:59;15.30;99.90
17795;DHT22;9021;50.882;4.326;2022-10-16T02:48:25;15.30;99.90
17795;DHT22;9021;50.882;4.326;2022-10-16T02:50:50;15.20;99.90
17795;DHT22;9021;50.882;4.326;2022-10-16T02:53:16;15.20;99.90
17795;DHT22;9021;50.882;4.326;2022-10-16T02:55:42;15.20;99.90
17795;DHT22;9021;50.882;4.326;2022-10-16T02:58:08;15.10;99.90
17795;DHT22;9021;50.882;4.326;2022-10-16T03:00:33;15.20;99.90
17795;DHT22;9021;50.882;4.326;2022-10-16T03:02:59;15.30;99.90
17795;DHT22;9021;50.882;4.326;2022-10-16T03:05:24;15.30;99.90
17795;DHT22;9021;50.882;4.326;2022-10-16T03:07:50;15.40;99.90
17795;DHT22;9021;50.882;4.326;2022-10-16T03:10:17;15.30;99.90
17795;DHT22;9021;50.882;4.326;2022-10-16T03:12:43;15.30;99.90
17795;DHT22;9021;50.882;4.326;2022-10-16T03:15:09;15.30;99.90
17795;DHT22;9021;50.882;4.326;2022-10-16T03:17:35;15.20;99.90
17795;DHT22;9021;50.882;4.326;2022-10-16T03:20:00;15.20;99.90
17795;DHT22;9021;50.882;4.326;2022-10-16T03:22:26;15.30;99.90
17795;DHT22;9021;50.882;4.326;2022-10-16T03:24:52;15.30;99.90
17795;DHT22;9021;50.882;4.326;2022-10-16T03:27:17;15.20;99.90
17795;DHT22;9021;50.882;4.326;2022-10-16T03:29:45;15.10;99.90
17795;DHT22;9021;50.882;4.326;2022-10-16T03:32:11;15.20;99.90
17795;DHT22;9021;50.882;4.326;2022-10-16T03:34:37;15.30;99.90
17795;DHT22;9021;50.882;4.326;2022-10-16T03:37:02;15.20;99.90
17795;DHT22;9021;50.882;4.326;2022-10-16T03:39:28;15.20;99.90
17795;DHT22;9021;50.882;4.326;2022-10-16T03:41:53;15.20;99.90
17795;DHT22;9021;50.882;4.326;2022-10-16T03:44:19;15.20;99.90
17795;DHT22;9021;50.882;4.326;2022-10-16T03:46:45;15.20;99.90
17795;DHT22;9021;50.882;4.326;2022-10-16T03:49:10;15.10;99.90
17795;DHT22;9021;50.882;4.326;2022-10-16T03:51:36;15.10;99.90
17795;DHT22;9021;50.882;4.326;2022-10-16T03:54:02;15.20;99.90
17795;DHT22;9021;50.882;4.326;2022-10-16T03:56:27;15.20;99.90
17795;DHT22;9021;50.882;4.326;2022-10-16T03:58:53;15.20;99.90
17795;DHT22;9021;50.882;4.326;2022-10-16T04:01:18;15.30;99.90
17795;DHT22;9021;50.882;4.326;2022-10-16T04:03:44;15.20;99.90
17795;DHT22;9021;50.882;4.326;2022-10-16T04:06:10;15.20;99.90
17795;DHT22;9021;50.882;4.326;2022-10-16T04:08:35;15.20;99.90
17795;DHT22;9021;50.882;4.326;2022-10-16T04:11:02;15.20;99.90
17795;DHT22;9021;50.882;4.326;2022-10-16T04:13:28;15.20;99.90
17795;DHT22;9021;50.882;4.326;2022-10-16T04:15:54;15.30;99.90
17795;DHT22;9021;50.882;4.326;2022-10-16T04:18:20;15.30;99.90
17795;DHT22;9021;50.882;4.326;2022-10-16T04:20:45;15.30;99.90
17795;DHT22;9021;50.882;4.326;2022-10-16T04:23:11;15.40;99.90
17795;DHT22;9021;50.882;4.326;2022-10-16T04:25:36;15.40;99.90
17795;DHT22;9021;50.882;4.326;2022-10-16T04:28:02;15.40;99.90
17795;DHT22;9021;50.882;4.326;2022-10-16T04:30:28;15.40;99.90
17795;DHT22;9021;50.882;4.326;2022-10-16T04:32:54;15.40;99.90
17795;DHT22;9021;50.882;4.326;2022-10-16T04:35:20;15.30;99.90
17795;DHT22;9021;50.882;4.326;2022-10-16T04:37:46;15.30;99.90
17795;DHT22;9021;50.882;4.326;2022-10-16T04:40:13;15.30;99.90
17795;DHT22;9021;50.882;4.326;2022-10-16T04:42:38;15.20;99.90
17795;DHT22;9021;50.882;4.326;2022-10-16T04:45:05;15.20;99.90
17795;DHT22;9021;50.882;4.326;2022-10-16T04:47:31;15.20;99.90
17795;DHT22;9021;50.882;4.326;2022-10-16T04:49:56;15.10;99.90
17795;DHT22;9021;50.882;4.326;2022-10-16T04:52:22;15.10;99.90
17795;DHT22;9021;50.882;4.326;2022-10-16T04:54:50;15.00;99.90
17795;DHT22;9021;50.882;4.326;2022-10-16T04:57:16;15.00;99.90
17795;DHT22;9021;50.882;4.326;2022-10-16T04:59:42;15.00;99.90
17795;DHT22;9021;50.882;4.326;2022-10-16T05:02:07;15.10;99.90
17795;DHT22;9021;50.882;4.326;2022-10-16T05:04:33;15.00;99.90
17795;DHT22;9021;50.882;4.326;2022-10-16T05:06:59;15.00;99.90
17795;DHT22;9021;50.882;4.326;2022-10-16T05:09:24;15.10;99.90
17795;DHT22;9021;50.882;4.326;2022-10-16T05:11:50;15.10;99.90
17795;DHT22;9021;50.882;4.326;2022-10-16T05:14:15;15.10;99.90
17795;DHT22;9021;50.882;4.326;2022-10-16T05:16:41;15.10;99.90
17795;DHT22;9021;50.882;4.326;2022-10-16T05:19:07;15.00;99.90
17795;DHT22;9021;50.882;4.326;2022-10-16T05:21:32;15.00;99.90
17795;DHT22;9021;50.882;4.326;2022-10-16T05:23:58;15.10;99.90
17795;DHT22;9021;50.882;4.326;2022-10-16T05:26:23;15.00;99.90
17795;DHT22;9021;50.882;4.326;2022-10-16T05:28:49;14.90;99.90
17795;DHT22;9021;50.882;4.326;2022-10-16T05:31:15;14.90;99.90
17795;DHT22;9021;50.882;4.326;2022-10-16T05:33:41;14.90;99.90
17795;DHT22;9021;50.882;4.326;2022-10-16T05:36:08;15.00;99.90
17795;DHT22;9021;50.882;4.326;2022-10-16T05:38:35;14.90;99.90
17795;DHT22;9021;50.882;4.326;2022-10-16T05:41:01;14.80;99.90
17795;DHT22;9021;50.882;4.326;2022-10-16T05:43:28;14.80;99.90
17795;DHT22;9021;50.882;4.326;2022-10-16T05:45:57;14.80;99.90
17795;DHT22;9021;50.882;4.326;2022-10-16T05:48:24;14.80;99.90
17795;DHT22;9021;50.882;4.326;2022-10-16T05:50:57;14.80;99.90
17795;DHT22;9021;50.882;4.326;2022-10-16T05:53:23;14.80;99.90
17795;DHT22;9021;50.882;4.326;2022-10-16T05:55:54;14.90;99.90
17795;DHT22;9021;50.882;4.326;2022-10-16T05:58:20;14.80;99.90
17795;DHT22;9021;50.882;4.326;2022-10-16T06:01:09;14.80;99.90
17795;DHT22;9021;50.882;4.326;2022-10-16T06:03:35;14.80;99.90
17795;DHT22;9021;50.882;4.326;2022-10-16T06:06:16;14.80;99.90
17795;DHT22;9021;50.882;4.326;2022-10-16T06:08:43;14.80;99.90
17795;DHT22;9021;50.882;4.326;2022-10-16T06:11:11;14.80;99.90
17795;DHT22;9021;50.882;4.326;2022-10-16T06:13:37;14.90;99.90
17795;DHT22;9021;50.882;4.326;2022-10-16T06:16:05;15.00;99.90
17795;DHT22;9021;50.882;4.326;2022-10-16T06:18:30;15.00;99.90
17795;DHT22;9021;50.882;4.326;2022-10-16T06:20:56;14.90;99.90
17795;DHT22;9021;50.882;4.326;2022-10-16T06:23:22;14.90;99.90
17795;DHT22;9021;50.882;4.326;2022-10-16T06:25:48;14.90;99.90
17795;DHT22;9021;50.882;4.326;2022-10-16T06:28:14;14.90;99.90
17795;DHT22;9021;50.882;4.326;2022-10-16T06:30:40;14.90;99.90
17795;DHT22;9021;50.882;4.326;2022-10-16T06:33:06;14.90;99.90
17795;DHT22;9021;50.882;4.326;2022-10-16T06:35:31;14.90;99.90
17795;DHT22;9021;50.882;4.326;2022-10-16T06:37:57;15.00;99.90
17795;DHT22;9021;50.882;4.326;2022-10-16T06:40:23;15.00;99.90
17795;DHT22;9021;50.882;4.326;2022-10-16T06:42:49;15.00;99.90
17795;DHT22;9021;50.882;4.326;2022-10-16T06:45:17;15.00;99.90
17795;DHT22;9021;50.882;4.326;2022-10-16T06:47:42;15.20;99.90
17795;DHT22;9021;50.882;4.326;2022-10-16T06:50:08;15.70;99.90
17795;DHT22;9021;50.882;4.326;2022-10-16T06:52:34;16.30;99.90
17795;DHT22;9021;50.882;4.326;2022-10-16T06:55:00;16.80;99.90
17795;DHT22;9021;50.882;4.326;2022-10-16T06:57:26;17.00;99.90
17795;DHT22;9021;50.882;4.326;2022-10-16T06:59:52;17.00;99.90
17795;DHT22;9021;50.882;4.326;2022-10-16T07:02:17;17.00;99.90
17795;DHT22;9021;50.882;4.326;2022-10-16T07:04:43;17.00;99.90
17795;DHT22;9021;50.882;4.326;2022-10-16T07:07:08;16.70;99.90
17795;DHT22;9021;50.882;4.326;2022-10-16T07:09:34;16.80;99.90
17795;DHT22;9021;50.882;4.326;2022-10-16T07:12:00;16.80;99.90
17795;DHT22;9021;50.882;4.326;2022-10-16T07:14:25;17.00;99.90
17795;DHT22;9021;50.882;4.326;2022-10-16T07:16:51;17.00;99.90
17795;DHT22;9021;50.882;4.326;2022-10-16T07:19:17;16.90;99.90
17795;DHT22;9021;50.882;4.326;2022-10-16T07:21:43;17.00;99.90
17795;DHT22;9021;50.882;4.326;2022-10-16T07:24:14;17.30;99.90
17795;DHT22;9021;50.882;4.326;2022-10-16T07:26:41;17.60;99.90
17795;DHT22;9021;50.882;4.326;2022-10-16T07:29:13;18.10;99.90
17795;DHT22;9021;50.882;4.326;2022-10-16T07:31:39;18.60;99.90
17795;DHT22;9021;50.882;4.326;2022-10-16T07:34:05;19.10;99.90
17795;DHT22;9021;50.882;4.326;2022-10-16T07:36:31;19.40;99.90
17795;DHT22;9021;50.882;4.326;2022-10-16T07:38:56;20.00;99.90
17795;DHT22;9021;50.882;4.326;2022-10-16T07:41:22;20.30;99.90
17795;DHT22;9021;50.882;4.326;2022-10-16T07:43:49;20.70;99.90
17795;DHT22;9021;50.882;4.326;2022-10-16T07:46:16;21.10;99.90
17795;DHT22;9021;50.882;4.326;2022-10-16T07:48:42;21.40;99.90
17795;DHT22;9021;50.882;4.326;2022-10-16T07:51:12;21.70;99.90
17795;DHT22;9021;50.882;4.326;2022-10-16T07:53:38;21.90;99.90
17795;DHT22;9021;50.882;4.326;2022-10-16T07:56:05;22.10;99.90
17795;DHT22;9021;50.882;4.326;2022-10-16T07:58:32;22.30;99.90
17795;DHT22;9021;50.882;4.326;2022-10-16T08:00:58;22.40;99.90
17795;DHT22;9021;50.882;4.326;2022-10-16T08:03:24;22.30;99.90
17795;DHT22;9021;50.882;4.326;2022-10-16T08:05:51;22.40;99.90
17795;DHT22;9021;50.882;4.326;2022-10-16T08:08:17;22.60;99.90
17795;DHT22;9021;50.882;4.326;2022-10-16T08:10:42;22.70;99.60
17795;DHT22;9021;50.882;4.326;2022-10-16T08:13:08;22.90;99.30
17795;DHT22;9021;50.882;4.326;2022-10-16T08:15:34;23.00;99.10
17795;DHT22;9021;50.882;4.326;2022-10-16T08:18:04;23.40;98.70
17795;DHT22;9021;50.882;4.326;2022-10-16T08:20:31;23.40;97.90
17795;DHT22;9021;50.882;4.326;2022-10-16T08:22:58;22.60;98.60
17795;DHT22;9021;50.882;4.326;2022-10-16T08:25:24;22.60;98.90
17795;DHT22;9021;50.882;4.326;2022-10-16T08:27:50;22.50;99.10
17795;DHT22;9021;50.882;4.326;2022-10-16T08:30:17;22.30;99.40
17795;DHT22;9021;50.882;4.326;2022-10-16T08:32:42;22.00;99.50
17795;DHT22;9021;50.882;4.326;2022-10-16T08:35:09;21.80;99.70
17795;DHT22;9021;50.882;4.326;2022-10-16T08:37:35;21.30;99.90
17795;DHT22;9021;50.882;4.326;2022-10-16T08:40:00;21.00;99.90
17795;DHT22;9021;50.882;4.326;2022-10-16T08:42:42;20.80;99.90
17795;DHT22;9021;50.882;4.326;2022-10-16T08:50:31;20.40;99.90
17795;DHT22;9021;50.882;4.326;2022-10-16T08:52:58;20.30;99.90
17795;DHT22;9021;50.882;4.326;2022-10-16T08:55:43;20.20;99.90
17795;DHT22;9021;50.882;4.326;2022-10-16T08:58:14;20.20;99.90
17795;DHT22;9021;50.882;4.326;2022-10-16T09:00:41;20.10;99.90
17795;DHT22;9021;50.882;4.326;2022-10-16T09:05:49;20.40;99.90
17795;DHT22;9021;50.882;4.326;2022-10-16T09:16:31;20.40;99.90
17795;DHT22;9021;50.882;4.326;2022-10-16T09:21:39;21.20;99.90
17795;DHT22;9021;50.882;4.326;2022-10-16T09:24:19;21.40;99.80
17795;DHT22;9021;50.882;4.326;2022-10-16T09:26:46;21.40;99.90
17795;DHT22;9021;50.882;4.326;2022-10-16T09:29:13;21.40;99.90
17795;DHT22;9021;50.882;4.326;2022-10-16T09:31:39;21.40;99.90
17795;DHT22;9021;50.882;4.326;2022-10-16T09:34:08;21.50;99.90
17795;DHT22;9021;50.882;4.326;2022-10-16T09:36:41;21.40;99.70
17795;DHT22;9021;50.882;4.326;2022-10-16T09:39:10;21.30;99.90
17795;DHT22;9021;50.882;4.326;2022-10-16T09:41:39;21.30;99.90
17795;DHT22;9021;50.882;4.326;2022-10-16T09:44:34;21.40;99.90
17795;DHT22;9021;50.882;4.326;2022-10-16T09:47:13;21.90;99.70
17795;DHT22;9021;50.882;4.326;2022-10-16T09:49:51;22.70;98.70
17795;DHT22;9021;50.882;4.326;2022-10-16T09:52:18;22.90;98.10
17795;DHT22;9021;50.882;4.326;2022-10-16T09:54:51;22.80;98.20
17795;DHT22;9021;50.882;4.326;2022-10-16T09:57:17;23.10;97.60
17795;DHT22;9021;50.882;4.326;2022-10-16T09:59:47;23.50;97.50
17795;DHT22;9021;50.882;4.326;2022-10-16T10:02:15;24.20;96.50
17795;DHT22;9021;50.882;4.326;2022-10-16T10:04:52;25.30;95.60
17795;DHT22;9021;50.882;4.326;2022-10-16T10:07:35;25.90;94.70
17795;DHT22;9021;50.882;4.326;2022-10-16T10:10:04;25.40;94.20
17795;DHT22;9021;50.882;4.326;2022-10-16T10:12:31;25.20;94.50
17795;DHT22;9021;50.882;4.326;2022-10-16T10:15:05;25.90;93.80
17795;DHT22;9021;50.882;4.326;2022-10-16T10:17:31;26.30;93.10
17795;DHT22;9021;50.882;4.326;2022-10-16T10:19:58;26.90;92.90
17795;DHT22;9021;50.882;4.326;2022-10-16T10:22:43;26.90;92.20
17795;DHT22;9021;50.882;4.326;2022-10-16T10:27:47;27.00;91.60
17795;DHT22;9021;50.882;4.326;2022-10-16T10:30:23;27.80;91.30
17795;DHT22;9021;50.882;4.326;2022-10-16T10:33:02;28.20;90.50
17795;DHT22;9021;50.882;4.326;2022-10-16T10:36:12;29.00;89.70
17795;DHT22;9021;50.882;4.326;2022-10-16T10:38:58;29.50;87.10
17795;DHT22;9021;50.882;4.326;2022-10-16T10:49:57;28.50;87.10
17795;DHT22;9021;50.882;4.326;2022-10-16T10:55:23;29.40;85.10
17795;DHT22;9021;50.882;4.326;2022-10-16T10:58:04;29.50;84.90
17795;DHT22;9021;50.882;4.326;2022-10-16T11:00:45;30.20;82.60
17795;DHT22;9021;50.882;4.326;2022-10-16T11:05:59;30.60;81.40
17795;DHT22;9021;50.882;4.326;2022-10-16T11:08:43;30.50;81.00
17795;DHT22;9021;50.882;4.326;2022-10-16T11:11:15;30.90;80.40
17795;DHT22;9021;50.882;4.326;2022-10-16T11:13:55;32.70;78.40
17795;DHT22;9021;50.882;4.326;2022-10-16T11:16:30;32.60;77.10
17795;DHT22;9021;50.882;4.326;2022-10-16T11:21:31;31.20;77.40
17795;DHT22;9021;50.882;4.326;2022-10-16T11:24:20;30.10;78.10
17795;DHT22;9021;50.882;4.326;2022-10-16T11:26:47;28.70;79.60
17795;DHT22;9021;50.882;4.326;2022-10-16T11:29:22;27.90;81.00
17795;DHT22;9021;50.882;4.326;2022-10-16T11:31:57;28.90;80.70
17795;DHT22;9021;50.882;4.326;2022-10-16T11:34:31;30.50;79.50
17795;DHT22;9021;50.882;4.326;2022-10-16T11:37:09;32.40;76.00
17795;DHT22;9021;50.882;4.326;2022-10-16T11:39:38;31.70;76.30
17795;DHT22;9021;50.882;4.326;2022-10-16T11:42:16;31.40;76.40
17795;DHT22;9021;50.882;4.326;2022-10-16T11:44:59;31.50;76.30
17795;DHT22;9021;50.882;4.326;2022-10-16T11:47:45;32.40;75.20
17795;DHT22;9021;50.882;4.326;2022-10-16T11:50:25;33.50;73.00
17795;DHT22;9021;50.882;4.326;2022-10-16T11:55:43;33.20;72.40
17795;DHT22;9021;50.882;4.326;2022-10-16T12:03:44;29.50;76.70
17795;DHT22;9021;50.882;4.326;2022-10-16T12:08:51;28.20;78.60
17795;DHT22;9021;50.882;4.326;2022-10-16T12:11:24;27.90;78.70
17795;DHT22;9021;50.882;4.326;2022-10-16T12:16:59;27.90;79.70
17795;DHT22;9021;50.882;4.326;2022-10-16T12:19:30;28.50;79.00
17795;DHT22;9021;50.882;4.326;2022-10-16T12:21:58;28.60;79.10
17795;DHT22;9021;50.882;4.326;2022-10-16T12:24:38;28.30;79.30
17795;DHT22;9021;50.882;4.326;2022-10-16T12:27:06;27.60;80.30
17795;DHT22;9021;50.882;4.326;2022-10-16T12:31:57;26.80;81.60
17795;DHT22;9021;50.882;4.326;2022-10-16T12:34:26;26.70;82.00
17795;DHT22;9021;50.882;4.326;2022-10-16T12:36:54;25.70;83.70
17795;DHT22;9021;50.882;4.326;2022-10-16T12:39:22;25.50;84.40
17795;DHT22;9021;50.882;4.326;2022-10-16T12:42:00;25.30;84.90
17795;DHT22;9021;50.882;4.326;2022-10-16T12:44:32;25.20;85.00
17795;DHT22;9021;50.882;4.326;2022-10-16T12:46:58;25.00;85.30
17795;DHT22;9021;50.882;4.326;2022-10-16T12:49:32;24.80;85.40
17795;DHT22;9021;50.882;4.326;2022-10-16T12:51:58;24.50;85.40
17795;DHT22;9021;50.882;4.326;2022-10-16T12:54:36;24.00;86.20
17795;DHT22;9021;50.882;4.326;2022-10-16T13:02:54;23.00;88.80
17795;DHT22;9021;50.882;4.326;2022-10-16T13:08:17;23.30;88.20
17795;DHT22;9021;50.882;4.326;2022-10-16T13:11:05;23.40;88.50
17795;DHT22;9021;50.882;4.326;2022-10-16T13:22:11;23.50;86.60
17795;DHT22;9021;50.882;4.326;2022-10-16T13:27:39;23.10;88.00
17795;DHT22;9021;50.882;4.326;2022-10-16T13:30:13;23.10;88.40
17795;DHT22;9021;50.882;4.326;2022-10-16T13:32:45;23.20;88.50
17795;DHT22;9021;50.882;4.326;2022-10-16T13:35:26;23.10;88.80
17795;DHT22;9021;50.882;4.326;2022-10-16T13:38:03;22.80;89.50
17795;DHT22;9021;50.882;4.326;2022-10-16T13:40:29;22.70;90.00
17795;DHT22;9021;50.882;4.326;2022-10-16T13:42:55;22.60;90.20
17795;DHT22;9021;50.882;4.326;2022-10-16T13:45:24;22.70;90.20
17795;DHT22;9021;50.882;4.326;2022-10-16T13:48:01;22.90;90.20
17795;DHT22;9021;50.882;4.326;2022-10-16T13:50:30;22.80;90.20
17795;DHT22;9021;50.882;4.326;2022-10-16T13:53:06;22.40;90.80
17795;DHT22;9021;50.882;4.326;2022-10-16T13:55:33;22.40;90.90
17795;DHT22;9021;50.882;4.326;2022-10-16T13:58:20;22.40;91.00
17795;DHT22;9021;50.882;4.326;2022-10-16T14:01:20;22.20;91.20
17795;DHT22;9021;50.882;4.326;2022-10-16T14:03:49;22.30;91.30
17795;DHT22;9021;50.882;4.326;2022-10-16T14:06:17;22.30;91.40
17795;DHT22;9021;50.882;4.326;2022-10-16T14:08:50;22.10;91.70
17795;DHT22;9021;50.882;4.326;2022-10-16T14:11:22;22.20;91.70
17795;DHT22;9021;50.882;4.326;2022-10-16T14:13:49;22.20;91.60
17795;DHT22;9021;50.882;4.326;2022-10-16T14:16:20;21.70;91.60
17795;DHT22;9021;50.882;4.326;2022-10-16T14:21:20;21.50;92.00
17795;DHT22;9021;50.882;4.326;2022-10-16T14:23:46;21.70;92.10
17795;DHT22;9021;50.882;4.326;2022-10-16T14:26:15;21.80;91.80
17795;DHT22;9021;50.882;4.326;2022-10-16T14:28:42;21.80;91.80
17795;DHT22;9021;50.882;4.326;2022-10-16T14:31:28;21.70;91.90
17795;DHT22;9021;50.882;4.326;2022-10-16T14:33:54;21.60;91.90
17795;DHT22;9021;50.882;4.326;2022-10-16T14:36:20;21.40;92.00
17795;DHT22;9021;50.882;4.326;2022-10-16T14:41:22;21.80;91.80
17795;DHT22;9021;50.882;4.326;2022-10-16T14:43:53;21.90;91.50
17795;DHT22;9021;50.882;4.326;2022-10-16T14:46:21;21.80;91.60
17795;DHT22;9021;50.882;4.326;2022-10-16T14:48:58;21.70;91.70
17795;DHT22;9021;50.882;4.326;2022-10-16T14:51:25;21.50;92.00
17795;DHT22;9021;50.882;4.326;2022-10-16T14:53:51;21.30;92.30
17795;DHT22;9021;50.882;4.326;2022-10-16T14:56:22;21.20;92.50
17795;DHT22;9021;50.882;4.326;2022-10-16T14:58:50;21.10;92.60
17795;DHT22;9021;50.882;4.326;2022-10-16T15:01:15;21.30;92.60
17795;DHT22;9021;50.882;4.326;2022-10-16T15:03:41;21.40;92.60
17795;DHT22;9021;50.882;4.326;2022-10-16T15:06:15;21.60;92.30
17795;DHT22;9021;50.882;4.326;2022-10-16T15:08:41;21.70;92.30
17795;DHT22;9021;50.882;4.326;2022-10-16T15:11:13;21.50;92.30
17795;DHT22;9021;50.882;4.326;2022-10-16T15:13:40;21.60;92.00
17795;DHT22;9021;50.882;4.326;2022-10-16T15:16:11;21.40;92.30
17795;DHT22;9021;50.882;4.326;2022-10-16T15:18:37;21.30;92.70
17795;DHT22;9021;50.882;4.326;2022-10-16T15:21:02;21.20;92.70
17795;DHT22;9021;50.882;4.326;2022-10-16T15:23:28;21.10;92.80
17795;DHT22;9021;50.882;4.326;2022-10-16T15:25:55;21.20;92.80
17795;DHT22;9021;50.882;4.326;2022-10-16T15:28:22;21.20;92.80
17795;DHT22;9021;50.882;4.326;2022-10-16T15:30:53;21.20;92.90
17795;DHT22;9021;50.882;4.326;2022-10-16T15:33:21;21.10;92.70
17795;DHT22;9021;50.882;4.326;2022-10-16T15:35:51;21.00;93.00
17795;DHT22;9021;50.882;4.326;2022-10-16T15:38:19;20.80;93.30
17795;DHT22;9021;50.882;4.326;2022-10-16T15:40:46;20.80;93.50
17795;DHT22;9021;50.882;4.326;2022-10-16T15:43:11;20.90;93.30
17795;DHT22;9021;50.882;4.326;2022-10-16T15:45:37;21.00;93.90
17795;DHT22;9021;50.882;4.326;2022-10-16T15:48:03;21.00;94.80
17795;DHT22;9021;50.882;4.326;2022-10-16T15:50:30;21.00;94.00
17795;DHT22;9021;50.882;4.326;2022-10-16T15:52:56;20.90;93.70
17795;DHT22;9021;50.882;4.326;2022-10-16T15:55:21;20.90;94.00
17795;DHT22;9021;50.882;4.326;2022-10-16T15:57:47;20.90;94.00
17795;DHT22;9021;50.882;4.326;2022-10-16T16:00:18;20.80;94.20
17795;DHT22;9021;50.882;4.326;2022-10-16T16:02:53;20.90;94.40
17795;DHT22;9021;50.882;4.326;2022-10-16T16:05:22;20.90;94.90
17795;DHT22;9021;50.882;4.326;2022-10-16T16:07:49;20.90;95.40
17795;DHT22;9021;50.882;4.326;2022-10-16T16:10:15;20.70;94.70
17795;DHT22;9021;50.882;4.326;2022-10-16T16:12:40;20.60;94.60
17795;DHT22;9021;50.882;4.326;2022-10-16T16:15:07;20.60;95.20
17795;DHT22;9021;50.882;4.326;2022-10-16T16:17:34;20.50;95.30
17795;DHT22;9021;50.882;4.326;2022-10-16T16:20:00;20.60;95.20
17795;DHT22;9021;50.882;4.326;2022-10-16T16:22:26;20.40;95.50
17795;DHT22;9021;50.882;4.326;2022-10-16T16:24:52;20.40;95.80
17795;DHT22;9021;50.882;4.326;2022-10-16T16:27:18;20.40;97.00
17795;DHT22;9021;50.882;4.326;2022-10-16T16:29:45;20.40;97.20
17795;DHT22;9021;50.882;4.326;2022-10-16T16:32:11;20.40;97.30
17795;DHT22;9021;50.882;4.326;2022-10-16T16:34:36;20.40;97.30
17795;DHT22;9021;50.882;4.326;2022-10-16T16:37:02;20.30;97.40
17795;DHT22;9021;50.882;4.326;2022-10-16T16:39:31;20.40;97.80
17795;DHT22;9021;50.882;4.326;2022-10-16T16:41:59;20.40;97.90
17795;DHT22;9021;50.882;4.326;2022-10-16T16:44:25;20.40;98.00
17795;DHT22;9021;50.882;4.326;2022-10-16T16:46:51;20.30;98.10
17795;DHT22;9021;50.882;4.326;2022-10-16T16:49:17;20.10;98.10
17795;DHT22;9021;50.882;4.326;2022-10-16T16:51:42;20.00;98.00
17795;DHT22;9021;50.882;4.326;2022-10-16T16:54:09;20.00;98.60
17795;DHT22;9021;50.882;4.326;2022-10-16T16:56:35;20.00;98.70
17795;DHT22;9021;50.882;4.326;2022-10-16T16:59:01;20.10;99.00
17795;DHT22;9021;50.882;4.326;2022-10-16T17:01:28;20.00;99.00
17795;DHT22;9021;50.882;4.326;2022-10-16T17:03:55;20.00;99.30
17795;DHT22;9021;50.882;4.326;2022-10-16T17:06:24;20.00;99.00
17795;DHT22;9021;50.882;4.326;2022-10-16T17:08:50;20.00;98.80
17795;DHT22;9021;50.882;4.326;2022-10-16T17:11:18;20.00;99.00
17795;DHT22;9021;50.882;4.326;2022-10-16T17:13:45;20.00;99.20
17795;DHT22;9021;50.882;4.326;2022-10-16T17:16:16;19.70;99.90
17795;DHT22;9021;50.882;4.326;2022-10-16T17:18:42;19.70;99.90
17795;DHT22;9021;50.882;4.326;2022-10-16T17:21:09;19.70;99.90
17795;DHT22;9021;50.882;4.326;2022-10-16T17:23:36;19.60;99.90
17795;DHT22;9021;50.882;4.326;2022-10-16T17:26:09;19.50;99.90
17795;DHT22;9021;50.882;4.326;2022-10-16T17:28:35;19.40;99.90
17795;DHT22;9021;50.882;4.326;2022-10-16T17:31:08;19.40;99.90